Time;durP1;ratioP1;P1;durP2;ratioP2;P2;SDS_P1;SDS_P2;PMS_P1;PMS_P2;Temp;Humidity;BMP_temperature;BMP_pressure;BME280_temperature;BME280_humidity;BME280_pressure;Samples;Min_cycle;Max_cycle;Signal;HPM_P1;HPM_P2
2022/06/21 00:01:06;;;;;;;20.60;10.33;;;;;;;;;;5043210;27;88418;-67
2022/06/21 00:03:35;;;;;;;15.23;8.50;;;;;;;;;;5027659;28;88468;-68
2022/06/21 00:06:04;;;;;;;20.47;9.20;;;;;;;;;;5019551;28;89460;-68
2022/06/21 00:08:33;;;;;;;14.23;7.67;;;;;;;;;;5032730;28;90144;-67
2022/06/21 00:11:02;;;;;;;15.17;7.90;;;;;;;;;;5022447;28;88373;-66
2022/06/21 00:13:31;;;;;;;13.00;6.50;;;;;;;;;;5022486;28;88221;-67
2022/06/21 00:16:00;;;;;;;11.63;7.27;;;;;;;;;;5022005;28;90653;-66
2022/06/21 00:18:30;;;;;;;13.53;7.97;;;;;;;;;;5021915;28;90328;-67
2022/06/21 00:20:58;;;;;;;12.67;6.57;;;;;;;;;;5012522;28;90512;-67
2022/06/21 00:23:31;;;;;;;15.87;6.97;;;;;;;;;;5004170;28;88290;-66
2022/06/21 00:25:59;;;;;;;11.70;5.53;;;;;;;;;;5001850;28;90509;-66
2022/06/21 00:28:28;;;;;;;14.37;6.50;;;;;;;;;;5001834;28;89993;-67
2022/06/21 00:30:56;;;;;;;12.43;6.00;;;;;;;;;;5001692;28;88311;-67
2022/06/21 00:33:25;;;;;;;15.17;5.70;;;;;;;;;;5002286;28;88543;-66
2022/06/21 00:35:54;;;;;;;10.23;4.97;;;;;;;;;;5018417;28;90700;-67
2022/06/21 00:38:24;;;;;;;6.50;4.40;;;;;;;;;;5022140;28;90092;-66
2022/06/21 00:40:53;;;;;;;12.67;4.53;;;;;;;;;;5022554;28;88270;-67
2022/06/21 00:43:22;;;;;;;12.23;4.77;;;;;;;;;;5022616;28;88434;-66
2022/06/21 00:45:51;;;;;;;6.90;3.33;;;;;;;;;;5010428;28;90486;-66
2022/06/21 00:48:19;;;;;;;7.47;4.00;;;;;;;;;;5003135;28;90400;-66
2022/06/21 00:50:50;;;;;;;8.70;3.93;;;;;;;;;;5012316;28;88561;-66
2022/06/21 00:53:18;;;;;;;5.93;3.30;;;;;;;;;;5009620;27;88424;-66
2022/06/21 00:55:49;;;;;;;8.13;3.93;;;;;;;;;;5001654;28;90672;-67
2022/06/21 00:58:19;;;;;;;6.03;3.20;;;;;;;;;;5002123;28;90012;-66
2022/06/21 01:00:53;;;;;;;7.57;4.13;;;;;;;;;;5001835;28;88291;-66
2022/06/21 01:03:23;;;;;;;7.40;3.47;;;;;;;;;;5001814;28;88552;-66
2022/06/21 01:05:52;;;;;;;6.40;3.60;;;;;;;;;;5002126;28;89296;-67
2022/06/21 01:08:21;;;;;;;4.23;2.53;;;;;;;;;;5002381;28;88958;-67
2022/06/21 01:10:50;;;;;;;4.43;2.60;;;;;;;;;;5002082;28;88556;-70
2022/06/21 01:13:22;;;;;;;8.20;3.33;;;;;;;;;;5008128;28;88384;-68
2022/06/21 01:15:50;;;;;;;4.13;2.77;;;;;;;;;;5025291;28;93045;-67
2022/06/21 01:18:21;;;;;;;6.23;3.03;;;;;;;;;;5042032;27;88679;-67
2022/06/21 01:20:50;;;;;;;6.27;3.13;;;;;;;;;;5027370;28;88284;-67
2022/06/21 01:23:24;;;;;;;8.63;3.30;;;;;;;;;;5006063;28;88364;-66
2022/06/21 01:25:53;;;;;;;6.80;2.93;;;;;;;;;;5000868;28;90681;-67
2022/06/21 01:28:22;;;;;;;4.20;2.90;;;;;;;;;;5001552;28;91917;-67
2022/06/21 01:30:52;;;;;;;5.17;3.07;;;;;;;;;;5001337;28;88280;-68
2022/06/21 01:33:26;;;;;;;6.53;2.60;;;;;;;;;;5035449;28;88481;-67
2022/06/21 01:35:55;;;;;;;6.97;3.10;;;;;;;;;;5009362;28;90162;-67
2022/06/21 01:38:24;;;;;;;5.50;3.30;;;;;;;;;;5011089;28;89924;-66
2022/06/21 01:40:54;;;;;;;7.17;3.50;;;;;;;;;;5021722;28;88521;-66
2022/06/21 01:43:24;;;;;;;8.50;3.73;;;;;;;;;;5004983;28;88606;-66
2022/06/21 01:45:53;;;;;;;7.03;3.30;;;;;;;;;;5005757;28;90645;-66
2022/06/21 01:48:23;;;;;;;4.37;3.23;;;;;;;;;;5001989;28;90574;-67
2022/06/21 01:50:52;;;;;;;7.23;3.00;;;;;;;;;;5007556;28;88392;-67
2022/06/21 01:53:20;;;;;;;4.23;3.00;;;;;;;;;;5021107;28;88627;-71
2022/06/21 01:55:50;;;;;;;7.27;4.07;;;;;;;;;;5007902;28;89512;-71
2022/06/21 01:58:19;;;;;;;7.43;3.63;;;;;;;;;;5019054;28;90267;-70
2022/06/21 02:00:50;;;;;;;5.63;3.23;;;;;;;;;;5012588;28;88509;-70
2022/06/21 02:03:19;;;;;;;6.90;3.67;;;;;;;;;;5008577;28;88493;-70
2022/06/21 02:05:47;;;;;;;5.10;3.00;;;;;;;;;;5007224;28;90800;-70
2022/06/21 02:08:16;;;;;;;6.60;3.90;;;;;;;;;;5031711;28;89438;-70
2022/06/21 02:10:45;;;;;;;13.43;3.97;;;;;;;;;;5019019;28;88448;-71
2022/06/21 02:13:13;;;;;;;7.63;3.00;;;;;;;;;;5012030;28;88413;-70
2022/06/21 02:15:43;;;;;;;5.50;3.23;;;;;;;;;;5018743;28;90599;-69
2022/06/21 02:18:13;;;;;;;5.37;3.33;;;;;;;;;;5020429;28;89429;-69
2022/06/21 02:20:43;;;;;;;6.83;3.37;;;;;;;;;;5020545;28;88233;-70
2022/06/21 02:23:12;;;;;;;5.23;3.63;;;;;;;;;;5014732;28;89136;-69
2022/06/21 02:25:40;;;;;;;4.70;2.70;;;;;;;;;;5004806;28;90623;-69
2022/06/21 02:28:09;;;;;;;4.57;3.57;;;;;;;;;;5018999;28;90373;-69
2022/06/21 02:30:38;;;;;;;6.97;3.87;;;;;;;;;;5013218;28;88517;-69
2022/06/21 02:33:07;;;;;;;4.63;3.30;;;;;;;;;;5017139;28;88716;-69
2022/06/21 02:35:38;;;;;;;5.50;3.70;;;;;;;;;;5009940;28;89487;-70
2022/06/21 02:38:13;;;;;;;5.10;4.27;;;;;;;;;;5016615;28;89351;-69
2022/06/21 02:40:44;;;;;;;4.43;3.20;;;;;;;;;;5014713;28;88508;-70
2022/06/21 02:43:13;;;;;;;4.77;3.53;;;;;;;;;;5020972;28;88468;-67
2022/06/21 02:45:43;;;;;;;5.87;3.20;;;;;;;;;;5012670;28;90610;-67
2022/06/21 02:48:13;;;;;;;9.17;3.17;;;;;;;;;;5019239;28;90096;-67
2022/06/21 02:50:43;;;;;;;9.87;3.53;;;;;;;;;;5023698;28;88411;-65
2022/06/21 02:53:14;;;;;;;4.37;3.57;;;;;;;;;;5024136;28;88441;-67
2022/06/21 02:55:43;;;;;;;6.17;3.33;;;;;;;;;;5016978;28;90935;-67
2022/06/21 02:58:14;;;;;;;5.80;3.63;;;;;;;;;;5007705;28;90030;-68
2022/06/21 03:00:43;;;;;;;5.13;3.63;;;;;;;;;;5007004;28;88832;-68
2022/06/21 03:03:14;;;;;;;6.13;3.40;;;;;;;;;;5021872;28;88720;-68
2022/06/21 03:05:44;;;;;;;7.87;3.40;;;;;;;;;;5008263;28;90632;-68
2022/06/21 03:08:12;;;;;;;5.10;3.47;;;;;;;;;;5019148;28;90080;-68
2022/06/21 03:10:41;;;;;;;8.57;4.47;;;;;;;;;;5021541;28;88466;-65
2022/06/21 03:13:10;;;;;;;8.93;4.43;;;;;;;;;;5007804;28;88495;-66
2022/06/21 03:15:38;;;;;;;7.37;3.83;;;;;;;;;;5017212;28;90588;-66
2022/06/21 03:18:07;;;;;;;7.10;3.97;;;;;;;;;;5004750;28;89250;-66
2022/06/21 03:20:35;;;;;;;9.80;4.23;;;;;;;;;;5011150;28;88629;-66
2022/06/21 03:23:05;;;;;;;5.17;3.27;;;;;;;;;;5003006;28;88461;-66
2022/06/21 03:25:36;;;;;;;7.83;3.87;;;;;;;;;;5009475;28;90671;-66
2022/06/21 03:28:04;;;;;;;7.40;3.70;;;;;;;;;;5002332;28;90054;-66
2022/06/21 03:30:33;;;;;;;8.97;4.03;;;;;;;;;;5003025;28;88513;-66
2022/06/21 03:33:02;;;;;;;11.13;3.90;;;;;;;;;;5002577;28;88463;-66
2022/06/21 03:35:31;;;;;;;6.33;4.30;;;;;;;;;;5002417;28;90612;-66
2022/06/21 03:37:59;;;;;;;10.77;4.47;;;;;;;;;;5005152;28;89954;-65
2022/06/21 03:43:15;;;;;;;13.07;4.73;;;;;;;;;;5004026;28;88411;-66
2022/06/21 03:45:44;;;;;;;9.43;3.77;;;;;;;;;;5002220;28;90838;-66
2022/06/21 03:48:14;;;;;;;7.53;4.30;;;;;;;;;;5005657;28;89916;-66
2022/06/21 03:50:44;;;;;;;6.30;3.33;;;;;;;;;;5002931;28;88344;-66
2022/06/21 03:53:13;;;;;;;9.33;3.97;;;;;;;;;;5004251;28;88658;-66
2022/06/21 03:55:43;;;;;;;5.03;4.00;;;;;;;;;;5014822;28;91104;-66
2022/06/21 03:58:15;;;;;;;8.60;4.33;;;;;;;;;;5005306;28;90119;-66
2022/06/21 04:00:45;;;;;;;7.23;4.03;;;;;;;;;;5006533;28;88465;-66
2022/06/21 04:03:14;;;;;;;6.60;4.07;;;;;;;;;;5020956;28;88541;-66
2022/06/21 04:05:43;;;;;;;5.47;3.03;;;;;;;;;;5005042;28;90888;-66
2022/06/21 04:08:12;;;;;;;8.03;3.57;;;;;;;;;;5018928;28;90016;-66
2022/06/21 04:10:43;;;;;;;6.73;2.83;;;;;;;;;;5020748;28;88502;-66
2022/06/21 04:13:12;;;;;;;6.83;3.70;;;;;;;;;;5019775;28;88490;-67
2022/06/21 04:15:42;;;;;;;5.83;3.33;;;;;;;;;;5009029;28;90764;-68
2022/06/21 04:18:12;;;;;;;7.90;2.93;;;;;;;;;;5020724;28;90024;-66
2022/06/21 04:20:41;;;;;;;5.53;2.90;;;;;;;;;;5022566;28;88364;-68
2022/06/21 04:23:11;;;;;;;10.47;3.00;;;;;;;;;;5022410;28;88459;-67
2022/06/21 04:25:42;;;;;;;4.40;2.07;;;;;;;;;;5019399;28;90387;-67
2022/06/21 04:28:12;;;;;;;3.87;1.77;;;;;;;;;;5020842;28;92924;-67
2022/06/21 04:30:42;;;;;;;3.87;2.30;;;;;;;;;;5002122;28;88499;-66
2022/06/21 04:33:10;;;;;;;5.20;1.87;;;;;;;;;;5017242;28;88607;-67
2022/06/21 04:35:40;;;;;;;2.87;2.47;;;;;;;;;;5014510;28;90424;-67
2022/06/21 04:38:09;;;;;;;6.70;2.20;;;;;;;;;;5008226;28;90004;-67
2022/06/21 04:40:38;;;;;;;5.57;2.13;;;;;;;;;;5022579;28;88369;-67
2022/06/21 04:43:07;;;;;;;3.67;1.90;;;;;;;;;;5028749;28;88386;-67
2022/06/21 04:45:38;;;;;;;1.93;1.50;;;;;;;;;;5018659;28;90753;-67
2022/06/21 04:48:23;;;;;;;2.53;1.47;;;;;;;;;;5021201;28;88338;-68
2022/06/21 04:50:53;;;;;;;2.50;1.50;;;;;;;;;;5004834;28;88411;-69
2022/06/21 04:53:23;;;;;;;3.40;1.50;;;;;;;;;;5005506;28;88507;-68
2022/06/21 04:55:53;;;;;;;2.70;1.50;;;;;;;;;;5012722;28;91020;-68
2022/06/21 04:58:21;;;;;;;3.30;1.40;;;;;;;;;;5016078;28;90294;-68
2022/06/21 05:00:51;;;;;;;4.73;1.33;;;;;;;;;;5008677;28;88536;-68
2022/06/21 05:03:24;;;;;;;2.63;1.50;;;;;;;;;;5000648;28;88464;-69
2022/06/21 05:05:52;;;;;;;3.47;1.50;;;;;;;;;;5000103;28;90602;-69
2022/06/21 05:08:21;;;;;;;3.70;1.50;;;;;;;;;;5002660;28;89546;-68
2022/06/21 05:10:51;;;;;;;4.20;2.00;;;;;;;;;;5001744;28;89302;-69
2022/06/21 05:13:20;;;;;;;3.87;1.50;;;;;;;;;;5002781;28;88537;-69
2022/06/21 05:15:49;;;;;;;2.23;1.13;;;;;;;;;;5000682;28;90667;-69
2022/06/21 05:18:19;;;;;;;4.67;1.60;;;;;;;;;;4999727;28;90360;-69
2022/06/21 05:20:48;;;;;;;2.20;1.00;;;;;;;;;;5001612;28;88433;-69
2022/06/21 05:23:16;;;;;;;5.53;1.77;;;;;;;;;;5000708;28;88557;-69
2022/06/21 05:25:45;;;;;;;1.37;1.17;;;;;;;;;;5009607;28;90552;-69
2022/06/21 05:28:14;;;;;;;0.60;0.60;;;;;;;;;;5000696;28;90109;-69
2022/06/21 05:30:43;;;;;;;2.07;0.70;;;;;;;;;;5006862;28;88849;-69
2022/06/21 05:33:13;;;;;;;1.13;0.70;;;;;;;;;;5019397;28;88583;-69
2022/06/21 05:35:42;;;;;;;1.53;0.73;;;;;;;;;;5018235;28;90602;-70
2022/06/21 05:38:12;;;;;;;2.27;0.97;;;;;;;;;;5001588;28;89956;-70
2022/06/21 05:40:42;;;;;;;1.00;0.80;;;;;;;;;;5001890;28;88373;-71
2022/06/21 05:43:12;;;;;;;1.37;1.00;;;;;;;;;;5018983;28;88569;-70
2022/06/21 05:45:40;;;;;;;2.67;1.10;;;;;;;;;;5021834;28;90698;-71
2022/06/21 05:48:10;;;;;;;3.33;0.80;;;;;;;;;;5010147;28;89923;-70
2022/06/21 05:50:38;;;;;;;2.60;1.03;;;;;;;;;;5018674;28;89112;-71
2022/06/21 05:53:11;;;;;;;3.00;0.90;;;;;;;;;;5015337;28;88506;-71
2022/06/21 05:55:40;;;;;;;1.57;0.77;;;;;;;;;;4999838;28;90617;-70
2022/06/21 05:58:09;;;;;;;1.73;0.93;;;;;;;;;;5003110;28;90458;-70
2022/06/21 06:00:39;;;;;;;1.07;0.90;;;;;;;;;;5019618;28;88593;-68
2022/06/21 06:03:09;;;;;;;1.87;0.90;;;;;;;;;;5010350;28;88357;-68
2022/06/21 06:05:38;;;;;;;2.77;1.07;;;;;;;;;;5010158;28;90943;-69
2022/06/21 06:08:08;;;;;;;1.30;1.10;;;;;;;;;;5003175;28;90115;-70
2022/06/21 06:10:37;;;;;;;1.90;1.20;;;;;;;;;;5007062;28;88460;-69
2022/06/21 06:13:07;;;;;;;3.43;0.73;;;;;;;;;;5010225;28;88679;-69
2022/06/21 06:15:35;;;;;;;2.30;1.00;;;;;;;;;;5005029;28;90661;-69
2022/06/21 06:18:05;;;;;;;0.97;0.97;;;;;;;;;;5004376;28;89628;-69
2022/06/21 06:20:33;;;;;;;0.87;0.70;;;;;;;;;;5022903;28;88609;-69
2022/06/21 06:23:02;;;;;;;3.37;1.37;;;;;;;;;;5024714;28;88331;-70
2022/06/21 06:25:32;;;;;;;1.23;1.00;;;;;;;;;;5015323;28;89480;-68
2022/06/21 06:28:03;;;;;;;1.17;0.90;;;;;;;;;;5005179;28;91275;-69
2022/06/21 06:30:33;;;;;;;0.80;0.80;;;;;;;;;;5020609;28;88474;-67
2022/06/21 06:33:04;;;;;;;2.57;0.80;;;;;;;;;;5023172;28;88527;-67
2022/06/21 06:35:33;;;;;;;2.37;0.90;;;;;;;;;;5022293;28;90112;-67
2022/06/21 06:38:01;;;;;;;0.87;0.70;;;;;;;;;;5025711;28;90236;-69
2022/06/21 06:40:32;;;;;;;1.70;0.93;;;;;;;;;;5018814;28;88488;-69
2022/06/21 06:43:01;;;;;;;3.80;1.00;;;;;;;;;;5022853;28;88399;-69
2022/06/21 06:45:32;;;;;;;2.60;0.73;;;;;;;;;;5009714;28;90602;-69
2022/06/21 06:48:03;;;;;;;0.70;0.70;;;;;;;;;;5003821;28;92817;-69
2022/06/21 06:50:33;;;;;;;2.07;0.73;;;;;;;;;;5016831;28;88492;-69
2022/06/21 06:53:03;;;;;;;2.87;1.07;;;;;;;;;;5012090;28;89403;-69
2022/06/21 06:55:33;;;;;;;1.43;0.70;;;;;;;;;;5003237;28;90633;-69
2022/06/21 06:58:23;;;;;;;0.77;0.70;;;;;;;;;;5005453;28;91732;-69
2022/06/21 07:00:55;;;;;;;0.60;0.60;;;;;;;;;;5014551;28;88382;-70
2022/06/21 07:03:24;;;;;;;1.70;0.67;;;;;;;;;;5014170;28;89063;-69
2022/06/21 07:05:53;;;;;;;3.20;0.60;;;;;;;;;;5012218;28;93581;-69
2022/06/21 07:08:22;;;;;;;1.33;0.93;;;;;;;;;;5010395;28;89806;-69
2022/06/21 07:10:51;;;;;;;0.43;0.43;;;;;;;;;;5001154;28;88361;-69
2022/06/21 07:13:19;;;;;;;0.57;0.57;;;;;;;;;;5002376;28;88520;-69
2022/06/21 07:15:48;;;;;;;2.10;0.60;;;;;;;;;;5003053;28;90684;-69
2022/06/21 07:18:18;;;;;;;0.93;0.50;;;;;;;;;;5003656;28;90062;-68
2022/06/21 07:20:46;;;;;;;2.40;1.10;;;;;;;;;;5004039;28;88561;-69
2022/06/21 07:23:15;;;;;;;1.10;0.70;;;;;;;;;;5002297;28;88492;-69
2022/06/21 07:25:44;;;;;;;0.60;0.50;;;;;;;;;;5003058;28;90653;-69
2022/06/21 07:28:13;;;;;;;1.77;0.80;;;;;;;;;;5003277;28;89452;-69
2022/06/21 07:30:42;;;;;;;2.20;0.90;;;;;;;;;;5003027;28;88448;-69
2022/06/21 07:33:12;;;;;;;0.97;0.70;;;;;;;;;;5003324;28;88228;-69
2022/06/21 07:35:42;;;;;;;2.40;0.73;;;;;;;;;;5003231;28;89691;-71
2022/06/21 07:38:12;;;;;;;1.30;0.83;;;;;;;;;;5002466;28;90457;-73
2022/06/21 07:40:42;;;;;;;2.20;0.60;;;;;;;;;;5003716;28;88334;-72
2022/06/21 07:43:12;;;;;;;2.20;1.03;;;;;;;;;;5003573;28;88503;-72
2022/06/21 07:45:42;;;;;;;1.17;0.80;;;;;;;;;;5002108;28;93155;-71
2022/06/21 07:48:13;;;;;;;1.53;0.87;;;;;;;;;;5002547;28;90560;-72
2022/06/21 07:50:44;;;;;;;0.40;0.40;;;;;;;;;;5003586;28;88988;-72
2022/06/21 07:53:13;;;;;;;0.90;0.60;;;;;;;;;;5002530;28;88459;-72
2022/06/21 07:55:42;;;;;;;0.50;0.50;;;;;;;;;;5015296;28;90472;-71
2022/06/21 07:58:12;;;;;;;1.33;0.70;;;;;;;;;;5022550;28;89060;-71
2022/06/21 08:09:03;;;;;;;0.40;0.40;;;;;;;;;;5020921;28;93593;-71
2022/06/21 08:11:33;;;;;;;0.50;0.50;;;;;;;;;;5014558;28;88540;-72
2022/06/21 08:14:02;;;;;;;1.73;0.90;;;;;;;;;;5002341;28;88421;-72
2022/06/21 08:16:33;;;;;;;1.30;0.40;;;;;;;;;;5002321;28;91166;-72
2022/06/21 08:19:09;;;;;;;0.63;0.57;;;;;;;;;;5002104;28;90552;-72
2022/06/21 08:21:39;;;;;;;1.20;0.50;;;;;;;;;;5001735;28;88364;-73
2022/06/21 08:24:10;;;;;;;1.53;0.80;;;;;;;;;;5002010;28;88494;-70
2022/06/21 08:26:39;;;;;;;0.60;0.60;;;;;;;;;;5002758;28;90773;-70
2022/06/21 08:29:08;;;;;;;1.27;0.70;;;;;;;;;;5001565;28;92399;-70
2022/06/21 08:31:37;;;;;;;2.77;0.83;;;;;;;;;;5002369;28;88310;-70
2022/06/21 08:34:07;;;;;;;1.60;0.53;;;;;;;;;;5002670;28;88473;-70
2022/06/21 08:36:37;;;;;;;1.23;1.03;;;;;;;;;;5001472;28;90814;-69
2022/06/21 08:39:08;;;;;;;0.70;0.60;;;;;;;;;;5002803;28;90401;-70
2022/06/21 08:41:55;;;;;;;0.77;0.50;;;;;;;;;;5002492;28;88456;-68
2022/06/21 08:44:27;;;;;;;0.60;0.50;;;;;;;;;;5003308;28;88520;-70
2022/06/21 08:47:02;;;;;;;1.47;0.67;;;;;;;;;;5002365;28;90622;-70
2022/06/21 08:49:38;;;;;;;1.60;0.73;;;;;;;;;;5001492;28;89973;-70
2022/06/21 08:52:22;;;;;;;0.60;0.60;;;;;;;;;;5002505;28;88540;-70
2022/06/21 08:54:56;;;;;;;1.33;0.83;;;;;;;;;;5002243;28;88609;-69
2022/06/21 08:57:27;;;;;;;0.60;0.50;;;;;;;;;;5001660;28;90776;-70
2022/06/21 08:59:59;;;;;;;1.03;0.93;;;;;;;;;;5002303;28;89938;-69
2022/06/21 09:02:30;;;;;;;1.77;0.60;;;;;;;;;;5018957;28;88583;-69
2022/06/21 09:05:02;;;;;;;0.40;0.40;;;;;;;;;;5022006;28;88446;-69
2022/06/21 09:07:34;;;;;;;1.17;0.70;;;;;;;;;;5021603;28;90645;-70
2022/06/21 09:10:16;;;;;;;0.93;0.70;;;;;;;;;;5021778;28;90096;-70
2022/06/21 09:12:48;;;;;;;1.00;0.63;;;;;;;;;;5022137;28;88112;-69
2022/06/21 09:15:27;;;;;;;0.80;0.70;;;;;;;;;;5003888;28;90184;-69
2022/06/21 09:17:57;;;;;;;0.93;0.77;;;;;;;;;;5001619;28;91870;-69
2022/06/21 09:20:27;;;;;;;0.93;0.67;;;;;;;;;;5001557;28;90100;-70
2022/06/21 09:23:17;;;;;;;0.70;0.70;;;;;;;;;;5004381;28;88504;-72
2022/06/21 09:25:49;;;;;;;1.57;0.70;;;;;;;;;;5011614;28;88345;-73
2022/06/21 09:28:22;;;;;;;1.80;0.93;;;;;;;;;;5009048;28;92620;-72
2022/06/21 09:30:52;;;;;;;1.17;0.90;;;;;;;;;;5005083;28;90371;-72
2022/06/21 09:33:22;;;;;;;1.30;0.70;;;;;;;;;;5003008;28;88265;-73
2022/06/21 09:35:51;;;;;;;2.87;0.63;;;;;;;;;;5001733;28;88117;-73
2022/06/21 09:38:21;;;;;;;1.27;0.50;;;;;;;;;;5001903;28;90579;-72
2022/06/21 09:40:53;;;;;;;0.47;0.40;;;;;;;;;;5000546;28;90500;-72
2022/06/21 09:43:25;;;;;;;1.70;0.60;;;;;;;;;;5002080;28;88201;-72
2022/06/21 09:45:54;;;;;;;1.23;0.73;;;;;;;;;;5002479;28;88464;-72
2022/06/21 09:48:25;;;;;;;1.17;0.73;;;;;;;;;;5001523;28;89903;-73
2022/06/21 09:51:15;;;;;;;1.00;0.57;;;;;;;;;;5001032;28;92039;-73
2022/06/21 09:53:45;;;;;;;0.50;0.50;;;;;;;;;;5001433;28;88576;-73
2022/06/21 09:56:18;;;;;;;1.33;0.57;;;;;;;;;;5000980;28;88599;-72
2022/06/21 09:58:51;;;;;;;0.50;0.50;;;;;;;;;;5001072;28;90229;-73
2022/06/21 10:01:20;;;;;;;1.97;0.60;;;;;;;;;;5005337;28;90712;-72
2022/06/21 10:03:52;;;;;;;0.50;0.50;;;;;;;;;;5020495;28;88467;-72
2022/06/21 10:06:24;;;;;;;0.47;0.30;;;;;;;;;;5020748;28;88462;-72
2022/06/21 10:08:56;;;;;;;1.03;0.40;;;;;;;;;;5008067;28;93976;-72
2022/06/21 10:11:29;;;;;;;1.70;0.40;;;;;;;;;;5000707;28;89526;-72
2022/06/21 10:14:03;;;;;;;0.70;0.50;;;;;;;;;;5000756;28;88413;-73
2022/06/21 10:16:39;;;;;;;0.40;0.40;;;;;;;;;;5002240;28;88547;-73
2022/06/21 10:19:12;;;;;;;0.50;0.50;;;;;;;;;;5000722;28;90993;-73
2022/06/21 10:21:48;;;;;;;0.50;0.50;;;;;;;;;;5000459;28;89986;-73
2022/06/21 10:24:41;;;;;;;0.40;0.40;;;;;;;;;;5001142;28;88663;-73
2022/06/21 10:27:18;;;;;;;0.43;0.40;;;;;;;;;;5001013;28;88497;-73
2022/06/21 10:29:54;;;;;;;0.53;0.30;;;;;;;;;;4999955;28;90710;-73
2022/06/21 10:32:26;;;;;;;0.40;0.40;;;;;;;;;;5001736;28;90136;-72
2022/06/21 10:35:22;;;;;;;1.50;0.80;;;;;;;;;;5021086;28;88422;-72
2022/06/21 10:37:57;;;;;;;1.07;0.50;;;;;;;;;;4985434;28;88563;-73
2022/06/21 10:40:32;;;;;;;1.73;0.67;;;;;;;;;;5011071;28;91573;-72
2022/06/21 10:43:12;;;;;;;0.83;0.53;;;;;;;;;;5000552;28;90478;-73
2022/06/21 10:45:42;;;;;;;0.50;0.50;;;;;;;;;;5000490;28;88392;-72
2022/06/21 10:48:16;;;;;;;0.30;0.30;;;;;;;;;;5000721;28;88606;-72
2022/06/21 10:50:46;;;;;;;0.67;0.67;;;;;;;;;;5013685;28;91041;-72
2022/06/21 10:53:18;;;;;;;0.40;0.40;;;;;;;;;;5019559;28;88863;-73
2022/06/21 10:58:44;;;;;;;0.63;0.63;;;;;;;;;;5020463;28;88625;-73
2022/06/21 11:01:21;;;;;;;0.90;0.53;;;;;;;;;;5023391;28;90651;-73
2022/06/21 11:03:58;;;;;;;0.80;0.70;;;;;;;;;;5023816;28;90276;-73
2022/06/21 11:06:28;;;;;;;0.60;0.53;;;;;;;;;;5022275;28;89680;-73
2022/06/21 11:09:01;;;;;;;0.63;0.53;;;;;;;;;;5023852;28;88579;-72
2022/06/21 11:11:30;;;;;;;1.90;0.70;;;;;;;;;;5023174;28;90619;-73
2022/06/21 11:14:03;;;;;;;1.43;0.57;;;;;;;;;;5023217;28;92745;-72
2022/06/21 11:16:35;;;;;;;0.50;0.50;;;;;;;;;;5024051;28;88229;-73
2022/06/21 11:19:06;;;;;;;0.73;0.70;;;;;;;;;;5024129;28;88572;-73
2022/06/21 11:21:38;;;;;;;0.53;0.53;;;;;;;;;;5023330;28;93470;-73
2022/06/21 11:24:11;;;;;;;1.00;0.53;;;;;;;;;;5018803;28;89476;-73
2022/06/21 11:26:43;;;;;;;0.30;0.30;;;;;;;;;;5012995;28;88335;-73
2022/06/21 11:29:21;;;;;;;0.90;0.50;;;;;;;;;;5003488;28;88449;-73
2022/06/21 11:31:51;;;;;;;0.50;0.50;;;;;;;;;;5002767;28;90677;-73
2022/06/21 11:34:23;;;;;;;1.07;0.50;;;;;;;;;;5003163;28;89328;-74
2022/06/21 11:36:53;;;;;;;0.40;0.40;;;;;;;;;;5003131;28;88462;-73
2022/06/21 11:39:25;;;;;;;2.67;0.67;;;;;;;;;;5004252;28;88504;-73
2022/06/21 11:42:06;;;;;;;1.17;0.40;;;;;;;;;;5022671;28;90042;-73
2022/06/21 11:44:40;;;;;;;4.37;0.77;;;;;;;;;;5022305;28;89987;-70
2022/06/21 11:47:11;;;;;;;0.40;0.40;;;;;;;;;;5023669;28;88270;-70
2022/06/21 11:49:43;;;;;;;2.20;0.50;;;;;;;;;;5023385;28;88482;-70
2022/06/21 11:52:31;;;;;;;0.37;0.37;;;;;;;;;;5022882;28;90679;-70
2022/06/21 11:55:01;;;;;;;0.33;0.30;;;;;;;;;;5022785;28;89882;-72
2022/06/21 11:57:31;;;;;;;1.17;0.50;;;;;;;;;;5020289;28;88429;-72
2022/06/21 12:00:04;;;;;;;1.60;0.80;;;;;;;;;;5023296;28;88591;-71
2022/06/21 12:02:34;;;;;;;1.03;0.70;;;;;;;;;;5023112;28;90455;-72
2022/06/21 12:05:03;;;;;;;0.50;0.50;;;;;;;;;;5022987;28;92352;-72
2022/06/21 12:07:33;;;;;;;2.47;1.00;;;;;;;;;;5024036;28;88528;-70
2022/06/21 12:10:03;;;;;;;0.70;0.40;;;;;;;;;;5022845;28;88428;-72
2022/06/21 12:12:44;;;;;;;0.97;0.50;;;;;;;;;;5007457;28;90066;-71
2022/06/21 12:15:27;;;;;;;1.13;0.57;;;;;;;;;;5002659;28;90004;-71
2022/06/21 12:17:55;;;;;;;1.33;0.70;;;;;;;;;;5002917;28;88526;-73
2022/06/21 12:20:27;;;;;;;0.70;0.60;;;;;;;;;;5003430;28;88253;-73
2022/06/21 12:22:56;;;;;;;1.13;0.70;;;;;;;;;;5004653;28;90617;-69
2022/06/21 12:25:24;;;;;;;0.63;0.60;;;;;;;;;;5009864;28;90046;-70
2022/06/21 12:27:59;;;;;;;4.60;0.60;;;;;;;;;;5013324;28;88516;-74
2022/06/21 12:30:49;;;;;;;0.50;0.50;;;;;;;;;;5007345;28;88536;-71
2022/06/21 12:33:18;;;;;;;2.30;0.50;;;;;;;;;;5017640;28;89547;-70
2022/06/21 12:35:48;;;;;;;1.23;0.50;;;;;;;;;;5023384;28;90360;-70
2022/06/21 12:38:17;;;;;;;1.10;0.80;;;;;;;;;;5022842;28;88321;-70
2022/06/21 12:40:47;;;;;;;0.90;0.70;;;;;;;;;;5019000;28;88373;-72
2022/06/21 12:43:20;;;;;;;1.27;0.50;;;;;;;;;;5002548;28;90238;-73
2022/06/21 12:45:55;;;;;;;0.30;0.30;;;;;;;;;;5004575;28;89949;-74
2022/06/21 12:48:31;;;;;;;1.43;0.60;;;;;;;;;;5002362;28;88279;-73
2022/06/21 12:51:04;;;;;;;0.73;0.50;;;;;;;;;;5002347;28;88998;-73
2022/06/21 12:53:40;;;;;;;1.60;0.60;;;;;;;;;;5002569;28;93595;-74
2022/06/21 12:56:10;;;;;;;2.07;1.03;;;;;;;;;;5002057;28;89498;-72
2022/06/21 12:58:44;;;;;;;0.53;0.50;;;;;;;;;;5003005;28;88342;-72
2022/06/21 13:01:14;;;;;;;0.50;0.50;;;;;;;;;;5015399;28;88523;-72
2022/06/21 13:03:47;;;;;;;0.50;0.50;;;;;;;;;;5001960;28;90923;-73
2022/06/21 13:06:32;;;;;;;0.70;0.70;;;;;;;;;;5001420;28;90017;-73
2022/06/21 13:09:04;;;;;;;0.87;0.40;;;;;;;;;;5001621;28;88420;-72
2022/06/21 13:11:45;;;;;;;1.57;0.50;;;;;;;;;;5020159;28;88568;-73
2022/06/21 13:14:28;;;;;;;0.40;0.30;;;;;;;;;;5021902;28;93357;-73
2022/06/21 13:17:00;;;;;;;0.97;0.60;;;;;;;;;;4992795;28;90306;-73
2022/06/21 13:19:37;;;;;;;0.97;0.70;;;;;;;;;;5002171;28;88276;-73
2022/06/21 13:22:15;;;;;;;1.40;0.83;;;;;;;;;;5007295;28;88422;-73
2022/06/21 13:24:48;;;;;;;1.63;0.70;;;;;;;;;;5022023;28;90579;-73
2022/06/21 13:27:22;;;;;;;0.70;0.47;;;;;;;;;;5021259;28;89560;-73
2022/06/21 13:29:58;;;;;;;0.67;0.60;;;;;;;;;;5021428;28;88338;-73
2022/06/21 13:32:29;;;;;;;0.77;0.60;;;;;;;;;;5019782;28;88584;-73
2022/06/21 13:34:58;;;;;;;0.60;0.60;;;;;;;;;;5021265;28;90728;-74
2022/06/21 13:37:34;;;;;;;0.40;0.40;;;;;;;;;;5021316;28;92348;-74
2022/06/21 13:40:04;;;;;;;1.00;0.73;;;;;;;;;;5021610;28;88368;-73
2022/06/21 13:42:40;;;;;;;1.40;0.80;;;;;;;;;;5021730;28;88560;-73
2022/06/21 13:45:19;;;;;;;0.83;0.73;;;;;;;;;;5021383;28;90145;-73
2022/06/21 13:47:49;;;;;;;1.90;0.60;;;;;;;;;;5020837;28;90361;-73
2022/06/21 13:50:19;;;;;;;0.93;0.67;;;;;;;;;;5020096;28;88431;-73
2022/06/21 13:52:50;;;;;;;1.07;0.73;;;;;;;;;;5021353;28;88486;-73
2022/06/21 13:55:29;;;;;;;0.63;0.53;;;;;;;;;;5020715;28;91149;-73
2022/06/21 13:58:02;;;;;;;1.67;1.10;;;;;;;;;;5020818;28;92397;-73
2022/06/21 14:00:31;;;;;;;1.47;0.50;;;;;;;;;;5021223;28;88381;-73
2022/06/21 14:03:02;;;;;;;0.73;0.73;;;;;;;;;;5020417;28;88446;-73
2022/06/21 14:05:32;;;;;;;1.60;1.13;;;;;;;;;;5019997;28;93799;-70
2022/06/21 14:08:02;;;;;;;2.97;0.70;;;;;;;;;;5000498;28;89349;-70
2022/06/21 14:10:31;;;;;;;1.07;0.80;;;;;;;;;;5000942;28;88370;-70
2022/06/21 14:13:02;;;;;;;1.37;0.77;;;;;;;;;;5001066;28;88414;-70
2022/06/21 14:15:32;;;;;;;1.80;0.90;;;;;;;;;;5001086;28;89882;-70
2022/06/21 14:18:04;;;;;;;1.87;0.53;;;;;;;;;;5012008;28;90013;-70
2022/06/21 14:20:38;;;;;;;0.60;0.60;;;;;;;;;;5021250;28;88376;-70
2022/06/21 14:23:07;;;;;;;0.67;0.67;;;;;;;;;;5020564;28;88597;-72
2022/06/21 14:25:37;;;;;;;0.87;0.87;;;;;;;;;;5020972;28;90620;-73
2022/06/21 14:28:07;;;;;;;2.63;0.83;;;;;;;;;;5020748;28;90427;-73
2022/06/21 14:30:36;;;;;;;3.73;0.70;;;;;;;;;;5020522;28;88390;-73
2022/06/21 14:33:16;;;;;;;0.40;0.40;;;;;;;;;;5022974;28;88541;-74
2022/06/21 14:35:45;;;;;;;0.70;0.70;;;;;;;;;;5019215;28;93595;-73
2022/06/21 14:38:15;;;;;;;0.60;0.60;;;;;;;;;;5004326;28;93519;-73
2022/06/21 14:40:44;;;;;;;1.03;0.60;;;;;;;;;;5004648;28;88424;-73
2022/06/21 14:43:17;;;;;;;0.40;0.40;;;;;;;;;;5004296;28;88556;-73
2022/06/21 14:45:47;;;;;;;0.50;0.43;;;;;;;;;;5004104;28;90791;-73
2022/06/21 14:48:19;;;;;;;1.03;0.70;;;;;;;;;;5003571;28;89904;-73
2022/06/21 14:50:48;;;;;;;1.40;0.77;;;;;;;;;;5023057;28;88517;-73
2022/06/21 14:53:22;;;;;;;2.13;0.63;;;;;;;;;;5024028;28;88335;-74
2022/06/21 14:55:54;;;;;;;0.50;0.50;;;;;;;;;;5023477;28;90982;-73
2022/06/21 14:58:47;;;;;;;1.03;0.50;;;;;;;;;;5006599;28;91349;-73
2022/06/21 15:01:40;;;;;;;1.67;0.80;;;;;;;;;;5003889;28;88556;-73
2022/06/21 15:04:13;;;;;;;1.77;0.67;;;;;;;;;;5004339;28;88541;-73
2022/06/21 15:06:42;;;;;;;2.50;0.80;;;;;;;;;;5020249;28;91023;-72
2022/06/21 15:09:12;;;;;;;1.00;1.00;;;;;;;;;;5023336;28;92596;-73
2022/06/21 15:12:03;;;;;;;3.03;1.53;;;;;;;;;;5021339;28;88578;-73
2022/06/21 15:14:32;;;;;;;4.60;1.80;;;;;;;;;;5003699;28;88326;-73
2022/06/21 15:17:11;;;;;;;3.77;1.57;;;;;;;;;;5003135;28;90953;-73
2022/06/21 15:19:59;;;;;;;3.97;1.57;;;;;;;;;;5003321;28;89939;-73
2022/06/21 15:22:29;;;;;;;2.63;1.50;;;;;;;;;;5014634;28;88540;-73